createdAt,value
2022-10-01T00:03:05.798Z,15.31
2022-10-01T00:06:02.086Z,15.29
2022-10-01T00:08:51.469Z,15.26
2022-10-01T00:11:39.812Z,15.24
2022-10-01T00:14:29.796Z,15.23
2022-10-01T00:17:19.954Z,15.21
2022-10-01T00:20:14.722Z,15.19
2022-10-01T00:23:03.641Z,15.16
2022-10-01T00:25:53.418Z,15.14
2022-10-01T00:28:43.606Z,15.11
2022-10-01T00:31:33.256Z,15.10
2022-10-01T00:34:22.765Z,15.08
2022-10-01T00:37:12.124Z,15.06
2022-10-01T00:40:01.289Z,15.04
2022-10-01T00:42:50.250Z,15.01
2022-10-01T00:45:39.652Z,14.98
2022-10-01T00:48:30.781Z,14.96
2022-10-01T00:51:20.610Z,14.94
2022-10-01T00:54:12.808Z,14.91
2022-10-01T00:57:04.267Z,14.90
2022-10-01T00:59:56.553Z,14.87
2022-10-01T01:02:45.161Z,14.84
2022-10-01T01:05:34.423Z,14.81
2022-10-01T01:08:23.382Z,14.78
2022-10-01T01:11:19.753Z,14.75
2022-10-01T01:14:18.650Z,14.72
2022-10-01T01:17:14.885Z,14.70
2022-10-01T01:20:17.899Z,14.65
2022-10-01T01:23:22.861Z,14.63
2022-10-01T01:26:22.882Z,14.58
2022-10-01T01:29:20.534Z,14.55
2022-10-01T01:32:18.002Z,14.50
2022-10-01T01:35:11.675Z,14.47
2022-10-01T01:38:05.959Z,14.44
2022-10-01T01:40:57.702Z,14.41
2022-10-01T01:43:48.796Z,14.37
2022-10-01T01:46:42.010Z,14.34
2022-10-01T01:49:31.013Z,14.32
2022-10-01T01:52:20.566Z,14.29
2022-10-01T01:55:11.134Z,14.25
2022-10-01T01:58:01.196Z,14.23
2022-10-01T02:00:52.409Z,14.20
2022-10-01T02:03:41.341Z,14.17
2022-10-01T02:06:43.000Z,14.15
2022-10-01T02:09:36.717Z,14.12
2022-10-01T02:12:38.538Z,14.08
2022-10-01T02:15:36.496Z,14.06
2022-10-01T02:18:30.560Z,14.01
2022-10-01T02:21:23.621Z,13.98
2022-10-01T02:24:21.989Z,13.95
2022-10-01T02:27:18.556Z,13.91
2022-10-01T02:30:11.132Z,13.88
2022-10-01T02:33:01.804Z,13.87
2022-10-01T02:35:53.597Z,13.83
2022-10-01T02:38:45.022Z,13.80
2022-10-01T02:41:36.694Z,13.77
2022-10-01T02:44:31.829Z,13.75
2022-10-01T02:47:23.942Z,13.71
2022-10-01T02:50:13.786Z,13.69
2022-10-01T02:53:07.218Z,13.64
2022-10-01T02:55:58.641Z,13.62
2022-10-01T02:58:48.447Z,13.60
2022-10-01T03:01:38.206Z,13.56
2022-10-01T03:04:27.565Z,13.52
2022-10-01T03:07:16.555Z,13.50
2022-10-01T03:10:08.282Z,13.46
2022-10-01T03:12:57.133Z,13.44
2022-10-01T03:15:47.418Z,13.41
2022-10-01T03:18:35.938Z,13.39
2022-10-01T03:21:25.449Z,13.38
2022-10-01T03:24:14.410Z,13.35
2022-10-01T03:27:02.960Z,13.33
2022-10-01T03:29:52.126Z,13.31
2022-10-01T03:32:40.866Z,13.30
2022-10-01T03:35:29.634Z,13.28
2022-10-01T03:38:19.003Z,13.26
2022-10-01T03:41:07.962Z,13.25
2022-10-01T03:44:00.347Z,13.21
2022-10-01T03:46:49.977Z,13.18
2022-10-01T03:49:38.936Z,13.17
2022-10-01T03:52:27.690Z,13.15
2022-10-01T03:55:16.651Z,13.14
2022-10-01T03:58:05.818Z,13.11
2022-10-01T04:00:54.779Z,13.10
2022-10-01T04:03:44.146Z,13.06
2022-10-01T04:06:33.310Z,13.05
2022-10-01T04:09:21.858Z,13.02
2022-10-01T04:12:10.615Z,12.99
2022-10-01T04:14:59.600Z,12.97
2022-10-01T04:17:48.329Z,12.95
2022-10-01T04:20:38.928Z,12.93
2022-10-01T04:23:28.094Z,12.92
2022-10-01T04:26:18.660Z,12.91
2022-10-01T04:29:07.649Z,12.89
2022-10-01T04:31:57.819Z,12.88
2022-10-01T04:34:52.328Z,12.86
2022-10-01T04:37:41.083Z,12.85
2022-10-01T04:40:29.837Z,12.85
2022-10-01T04:43:18.801Z,12.84
2022-10-01T04:46:07.551Z,12.85
2022-10-01T04:48:56.717Z,12.84
2022-10-01T04:51:45.881Z,12.86
2022-10-01T04:54:35.044Z,12.86
2022-10-01T04:57:23.595Z,12.89
2022-10-01T05:00:16.651Z,12.91
2022-10-01T05:03:18.539Z,12.93
2022-10-01T05:06:09.930Z,12.95
2022-10-01T05:08:58.696Z,12.99
2022-10-01T05:11:51.741Z,13.02
2022-10-01T05:14:40.496Z,13.07
2022-10-01T05:17:33.517Z,13.12
2022-10-01T05:20:25.488Z,13.17
2022-10-01T05:23:14.341Z,13.22
2022-10-01T05:26:05.348Z,13.27
2022-10-01T05:28:53.574Z,13.36
2022-10-01T05:31:43.890Z,13.41
2022-10-01T05:34:32.635Z,13.51
2022-10-01T05:37:21.390Z,13.58
2022-10-01T05:40:11.193Z,13.66
2022-10-01T05:43:01.278Z,13.77
2022-10-01T05:45:50.756Z,13.85
2022-10-01T05:48:39.896Z,13.93
2022-10-01T05:51:29.696Z,14.06
2022-10-01T05:54:19.245Z,14.19
2022-10-01T05:57:09.211Z,14.33
2022-10-01T05:59:57.985Z,14.46
2022-10-01T06:02:52.110Z,14.56
2022-10-01T06:05:41.024Z,14.69
2022-10-01T06:08:29.570Z,14.85
2022-10-01T06:11:18.738Z,15.00
2022-10-01T06:14:07.492Z,15.22
2022-10-01T06:16:56.129Z,15.42
2022-10-01T06:19:45.206Z,15.59
2022-10-01T06:22:33.756Z,15.73
2022-10-01T06:25:22.924Z,15.87
2022-10-01T06:28:14.317Z,16.01
2022-10-01T06:31:04.118Z,16.21
2022-10-01T06:33:52.669Z,16.37
2022-10-01T06:36:42.038Z,16.50
2022-10-01T06:39:30.587Z,16.62
2022-10-01T06:42:19.750Z,16.75
2022-10-01T06:45:11.053Z,16.88
2022-10-01T06:48:02.586Z,17.01
2022-10-01T06:50:52.777Z,17.16
2022-10-01T06:53:40.917Z,17.29
2022-10-01T06:56:30.083Z,17.42
2022-10-01T06:59:19.041Z,17.54
2022-10-01T07:02:11.028Z,17.68
2022-10-01T07:04:59.847Z,17.82
2022-10-01T07:07:48.588Z,17.96
2022-10-01T07:10:37.759Z,18.14
2022-10-01T07:13:26.300Z,18.31
2022-10-01T07:16:15.503Z,18.50
2022-10-01T07:19:04.312Z,18.74
2022-10-01T07:21:52.975Z,18.96
2022-10-01T07:24:41.731Z,19.19
2022-10-01T07:27:30.692Z,19.45
2022-10-01T07:30:20.243Z,19.71
2022-10-01T07:33:09.018Z,19.91
2022-10-01T07:35:59.837Z,20.10
2022-10-01T07:38:50.831Z,20.28
2022-10-01T07:41:39.790Z,20.47
2022-10-01T07:44:29.782Z,20.61
2022-10-01T07:47:18.120Z,20.78
2022-10-01T07:50:08.937Z,20.93
2022-10-01T07:52:58.901Z,21.08
2022-10-01T07:55:48.083Z,21.22
2022-10-01T07:58:37.234Z,21.36
2022-10-01T08:01:26.040Z,21.50
2022-10-01T08:04:33.386Z,21.67
2022-10-01T08:07:21.935Z,21.85
2022-10-01T08:10:11.509Z,22.04
2022-10-01T08:13:08.409Z,22.22
2022-10-01T08:15:57.415Z,22.39
2022-10-01T08:18:45.967Z,22.54
2022-10-01T08:21:35.973Z,22.70
2022-10-01T08:24:25.117Z,22.87
2022-10-01T08:27:14.077Z,23.05
2022-10-01T08:30:04.059Z,23.21
2022-10-01T08:32:57.523Z,23.38
2022-10-01T08:35:46.697Z,23.54
2022-10-01T08:38:36.062Z,23.72
2022-10-01T08:41:43.250Z,23.87
2022-10-01T08:44:36.888Z,24.06
2022-10-01T08:47:34.866Z,24.17
2022-10-01T08:50:35.318Z,24.31
2022-10-01T08:53:33.891Z,24.45
2022-10-01T08:56:28.157Z,24.59
2022-10-01T08:59:34.558Z,24.74
2022-10-01T09:02:26.081Z,24.91
2022-10-01T09:05:21.758Z,25.05
2022-10-01T09:08:20.892Z,25.17
2022-10-01T09:11:23.304Z,25.29
2022-10-01T09:14:29.738Z,25.42
2022-10-01T09:17:29.915Z,25.56
2022-10-01T09:20:25.376Z,25.71
2022-10-01T09:23:23.431Z,25.85
2022-10-01T09:26:13.638Z,26.01
2022-10-01T09:29:03.623Z,26.12
2022-10-01T09:31:53.831Z,26.26
2022-10-01T09:34:44.581Z,26.40
2022-10-01T09:37:42.497Z,26.55
2022-10-01T09:40:36.194Z,26.69
2022-10-01T09:43:28.685Z,26.83
2022-10-01T09:46:19.680Z,26.94
2022-10-01T09:49:15.628Z,27.07
2022-10-01T09:52:10.717Z,27.16
2022-10-01T09:55:05.154Z,27.26
2022-10-01T09:57:59.656Z,27.36
2022-10-01T10:00:51.031Z,27.47
2022-10-01T10:03:39.741Z,27.55
2022-10-01T10:06:31.980Z,27.63
2022-10-01T10:09:28.456Z,27.72
2022-10-01T10:12:29.665Z,27.83
2022-10-01T10:15:21.511Z,27.91
2022-10-01T10:18:19.270Z,27.98
2022-10-01T10:21:18.931Z,28.05
2022-10-01T10:24:26.338Z,28.13
2022-10-01T10:27:26.265Z,28.22
2022-10-01T10:30:18.355Z,28.31
2022-10-01T10:33:07.722Z,28.40
2022-10-01T10:36:04.613Z,28.50
2022-10-01T10:38:53.689Z,28.57
2022-10-01T10:41:47.031Z,28.64
2022-10-01T10:44:39.129Z,28.72
2022-10-01T10:47:28.704Z,28.77
2022-10-01T10:50:29.381Z,28.80
2022-10-01T10:53:22.602Z,28.83
2022-10-01T10:56:22.134Z,28.85
2022-10-01T10:59:11.819Z,28.87
2022-10-01T11:02:03.130Z,28.89
2022-10-01T11:04:51.137Z,28.90
2022-10-01T11:07:45.537Z,28.88
2022-10-01T11:10:46.264Z,28.86
2022-10-01T11:14:02.671Z,28.83
2022-10-01T11:17:14.300Z,28.80
2022-10-01T11:20:22.144Z,28.81
2022-10-01T11:23:30.103Z,28.80
2022-10-01T11:26:29.548Z,28.78
2022-10-01T11:29:30.481Z,28.79
2022-10-01T11:32:28.810Z,28.79
2022-10-01T11:35:49.003Z,28.75
2022-10-01T11:38:54.342Z,28.74
2022-10-01T11:41:47.197Z,28.74
2022-10-01T11:44:42.295Z,28.73
2022-10-01T11:47:36.126Z,28.72
2022-10-01T11:50:28.517Z,28.71
2022-10-01T11:53:24.215Z,28.70
2022-10-01T11:56:36.465Z,28.68
2022-10-01T11:59:33.269Z,28.64
2022-10-01T12:02:27.962Z,28.65
2022-10-01T12:05:19.924Z,28.65
2022-10-01T12:08:16.911Z,28.65
2022-10-01T12:11:17.948Z,28.67
2022-10-01T12:14:13.091Z,28.65
2022-10-01T12:17:11.562Z,28.65
2022-10-01T12:20:02.072Z,28.68
2022-10-01T12:22:52.043Z,28.69
2022-10-01T12:25:51.253Z,28.73
2022-10-01T12:28:51.541Z,28.75
2022-10-01T12:31:50.726Z,28.77
2022-10-01T12:34:53.284Z,28.82
2022-10-01T12:38:00.138Z,28.87
2022-10-01T12:40:58.109Z,28.91
2022-10-01T12:44:32.125Z,28.96
2022-10-01T12:47:35.826Z,28.98
2022-10-01T12:50:35.166Z,29.00
2022-10-01T12:53:36.690Z,29.03
2022-10-01T12:56:32.489Z,29.02
2022-10-01T12:59:35.439Z,29.02
2022-10-01T13:02:52.111Z,29.01
2022-10-01T13:05:50.606Z,28.99
2022-10-01T13:08:53.789Z,28.96
2022-10-01T13:12:02.613Z,28.94
2022-10-01T13:14:56.494Z,28.95
2022-10-01T13:17:52.747Z,28.94
2022-10-01T13:20:53.846Z,28.93
2022-10-01T13:23:50.220Z,28.91
2022-10-01T13:26:47.353Z,28.91
2022-10-01T13:29:46.885Z,28.90
2022-10-01T13:32:38.186Z,28.87
2022-10-01T13:35:34.411Z,28.86
2022-10-01T13:38:39.681Z,28.88
2022-10-01T13:41:32.771Z,28.87
2022-10-01T13:44:26.165Z,28.84
2022-10-01T13:47:20.075Z,28.81
2022-10-01T13:50:24.817Z,28.78
2022-10-01T13:53:20.827Z,28.76
2022-10-01T13:56:12.429Z,28.71
2022-10-01T13:59:01.078Z,28.64
2022-10-01T14:01:49.855Z,28.59
2022-10-01T14:04:40.636Z,28.53
2022-10-01T14:07:36.354Z,28.46
2022-10-01T14:10:34.037Z,28.40
2022-10-01T14:13:41.921Z,28.33
2022-10-01T14:16:36.260Z,28.27
2022-10-01T14:19:27.398Z,28.21
2022-10-01T14:22:30.432Z,28.17
2022-10-01T14:25:30.060Z,28.12
2022-10-01T14:28:39.094Z,28.07
2022-10-01T14:31:39.718Z,28.00
2022-10-01T14:34:53.636Z,27.93
2022-10-01T14:37:41.871Z,27.88
2022-10-01T14:40:38.554Z,27.83
2022-10-01T14:43:29.012Z,27.78
2022-10-01T14:46:18.780Z,27.74
2022-10-01T14:49:17.713Z,27.76
2022-10-01T14:52:16.656Z,27.74
2022-10-01T14:55:12.918Z,27.68
2022-10-01T14:58:01.872Z,27.62
2022-10-01T15:00:53.274Z,27.56
2022-10-01T15:03:43.488Z,27.49
2022-10-01T15:06:42.890Z,27.44
2022-10-01T15:09:34.309Z,27.39
2022-10-01T15:12:24.081Z,27.34
2022-10-01T15:15:26.590Z,27.29
2022-10-01T15:18:17.361Z,27.22
2022-10-01T15:21:08.569Z,27.17
2022-10-01T15:23:57.967Z,27.13
2022-10-01T15:26:48.967Z,27.08
2022-10-01T15:29:39.674Z,27.03
2022-10-01T15:32:29.133Z,26.98
2022-10-01T15:35:20.519Z,26.92
2022-10-01T15:38:11.453Z,26.86
2022-10-01T15:41:26.781Z,26.80
2022-10-01T15:44:46.817Z,26.73
2022-10-01T15:47:37.441Z,26.63
2022-10-01T15:50:31.858Z,26.54
2022-10-01T15:53:22.792Z,26.46
2022-10-01T15:56:14.544Z,26.36
2022-10-01T15:59:16.393Z,26.27
2022-10-01T16:02:18.243Z,26.19
2022-10-01T16:05:07.224Z,26.11
2022-10-01T16:07:58.167Z,26.01
2022-10-01T16:10:47.556Z,25.91
2022-10-01T16:13:40.857Z,25.84
2022-10-01T16:16:30.058Z,25.75
2022-10-01T16:19:28.753Z,25.66
2022-10-01T16:22:25.924Z,25.56
2022-10-01T16:25:32.335Z,25.43
2022-10-01T16:28:28.061Z,25.30
2022-10-01T16:31:16.334Z,25.23
2022-10-01T16:34:12.626Z,25.15
2022-10-01T16:37:02.445Z,25.07
2022-10-01T16:39:51.226Z,24.99
2022-10-01T16:42:40.837Z,24.92
2022-10-01T16:45:35.003Z,24.85
2022-10-01T16:48:24.698Z,24.78
2022-10-01T16:51:13.194Z,24.70
2022-10-01T16:54:02.007Z,24.64
2022-10-01T16:56:51.374Z,24.55
2022-10-01T16:59:40.747Z,24.48
2022-10-01T17:02:29.591Z,24.40
2022-10-01T17:05:21.816Z,24.32
2022-10-01T17:08:11.468Z,24.24
2022-10-01T17:11:02.888Z,24.17
2022-10-01T17:13:51.894Z,24.09
2022-10-01T17:16:40.419Z,24.01
2022-10-01T17:19:29.402Z,23.94
2022-10-01T17:22:18.366Z,23.86
2022-10-01T17:25:14.100Z,23.78
2022-10-01T17:28:05.313Z,23.71
2022-10-01T17:30:54.256Z,23.63
2022-10-01T17:33:43.626Z,23.54
2022-10-01T17:36:34.718Z,23.46
2022-10-01T17:39:23.185Z,23.38
2022-10-01T17:42:14.498Z,23.32
2022-10-01T17:45:04.613Z,23.24
2022-10-01T17:47:54.165Z,23.18
2022-10-01T17:50:44.323Z,23.11
2022-10-01T17:53:38.179Z,23.07
2022-10-01T17:56:31.194Z,23.02
2022-10-01T17:59:21.062Z,22.96
2022-10-01T18:02:36.655Z,22.90
2022-10-01T18:05:20.290Z,22.84
2022-10-01T18:08:08.842Z,22.80
2022-10-01T18:11:04.934Z,22.74
2022-10-01T18:13:53.108Z,22.67
2022-10-01T18:16:42.155Z,22.61
2022-10-01T18:19:52.891Z,22.56
2022-10-01T18:22:40.459Z,22.48
2022-10-01T18:25:29.215Z,22.42
2022-10-01T18:28:18.652Z,22.36
2022-10-01T18:31:19.460Z,22.31
2022-10-01T18:34:19.037Z,22.24
2022-10-01T18:37:16.343Z,22.17
2022-10-01T18:40:11.493Z,22.10
2022-10-01T18:43:05.166Z,22.03
2022-10-01T18:46:10.585Z,21.95
2022-10-01T18:49:18.107Z,21.88
2022-10-01T18:52:19.356Z,21.82
2022-10-01T18:55:31.845Z,21.77
2022-10-01T18:58:38.853Z,21.69
2022-10-01T19:01:37.187Z,21.64
2022-10-01T19:04:44.008Z,21.56
2022-10-01T19:07:48.329Z,21.48
2022-10-01T19:10:43.002Z,21.42
2022-10-01T19:13:39.561Z,21.34
2022-10-01T19:16:44.315Z,21.29
2022-10-01T19:19:41.239Z,21.23
2022-10-01T19:22:50.476Z,21.18
2022-10-01T19:25:46.833Z,21.12
2022-10-01T19:28:53.783Z,21.07
2022-10-01T19:31:50.983Z,21.00
2022-10-01T19:34:46.456Z,20.95
2022-10-01T19:37:41.022Z,20.90
2022-10-01T19:40:34.983Z,20.86
2022-10-01T19:43:30.054Z,20.81
2022-10-01T19:46:23.221Z,20.77
2022-10-01T19:49:19.432Z,20.74
2022-10-01T19:52:13.780Z,20.70
2022-10-01T19:55:02.553Z,20.65
2022-10-01T19:57:52.337Z,20.62
2022-10-01T20:00:46.806Z,20.58
2022-10-01T20:03:39.534Z,20.56
2022-10-01T20:06:33.894Z,20.55
2022-10-01T20:09:27.038Z,20.52
2022-10-01T20:12:26.220Z,20.49
2022-10-01T20:15:26.444Z,20.46
2022-10-01T20:18:28.131Z,20.45
2022-10-01T20:21:30.616Z,20.43
2022-10-01T20:24:37.497Z,20.43
2022-10-01T20:27:37.167Z,20.38
2022-10-01T20:30:27.755Z,20.32
2022-10-01T20:33:29.016Z,20.26
2022-10-01T20:36:24.118Z,20.21
2022-10-01T20:39:19.579Z,20.17
2022-10-01T20:42:16.168Z,20.13
2022-10-01T20:45:15.366Z,20.11
2022-10-01T20:48:10.382Z,20.08
2022-10-01T20:51:06.194Z,20.08
2022-10-01T20:54:03.142Z,20.05
2022-10-01T20:57:13.196Z,20.00
2022-10-01T21:00:14.235Z,19.96
2022-10-01T21:03:11.858Z,19.91
2022-10-01T21:06:05.262Z,19.84
2022-10-01T21:08:57.375Z,19.79
2022-10-01T21:11:52.333Z,19.73
2022-10-01T21:14:45.843Z,19.69
2022-10-01T21:17:45.381Z,19.66
2022-10-01T21:20:53.686Z,19.60
2022-10-01T21:24:00.518Z,19.51
2022-10-01T21:27:01.712Z,19.45
2022-10-01T21:30:02.773Z,19.38
2022-10-01T21:33:15.463Z,19.32
2022-10-01T21:36:11.374Z,19.28
2022-10-01T21:39:12.438Z,19.24
2022-10-01T21:42:14.300Z,19.19
2022-10-01T21:45:25.222Z,19.17
2022-10-01T21:48:28.252Z,19.13
2022-10-01T21:51:31.973Z,19.09
2022-10-01T21:54:54.722Z,19.03
2022-10-01T21:57:52.878Z,18.99
2022-10-01T22:00:41.922Z,18.97
2022-10-01T22:03:39.587Z,18.95
2022-10-01T22:06:35.663Z,18.94
2022-10-01T22:09:35.179Z,18.91
2022-10-01T22:12:27.428Z,18.88
2022-10-01T22:15:24.966Z,18.88
2022-10-01T22:18:20.585Z,18.86
2022-10-01T22:21:12.762Z,18.83
2022-10-01T22:24:06.584Z,18.83
2022-10-01T22:26:59.819Z,18.84
2022-10-01T22:29:51.900Z,18.82
2022-10-01T22:32:45.749Z,18.82
2022-10-01T22:35:40.783Z,18.83
2022-10-01T22:38:35.750Z,18.84
2022-10-01T22:41:31.385Z,18.84
2022-10-01T22:44:23.307Z,18.82
2022-10-01T22:47:45.435Z,18.81
2022-10-01T22:50:49.757Z,18.82
2022-10-01T22:53:55.714Z,18.81
2022-10-01T22:56:52.039Z,18.80
2022-10-01T22:59:52.065Z,18.80
2022-10-01T23:02:43.688Z,18.80
2022-10-01T23:05:46.368Z,18.81
2022-10-01T23:08:43.518Z,18.82
2022-10-01T23:11:42.313Z,18.83
2022-10-01T23:14:48.685Z,18.84
2022-10-01T23:17:42.763Z,18.84
2022-10-01T23:20:34.087Z,18.85
2022-10-01T23:23:31.341Z,18.84
2022-10-01T23:26:36.417Z,18.81
2022-10-01T23:29:46.728Z,18.81
2022-10-01T23:33:01.901Z,18.79
2022-10-01T23:36:00.514Z,18.76
2022-10-01T23:39:20.577Z,18.75
2022-10-01T23:42:20.282Z,18.75
2022-10-01T23:45:19.981Z,18.73
2022-10-01T23:48:15.023Z,18.74
2022-10-01T23:51:08.128Z,18.71
2022-10-01T23:54:04.835Z,18.71
2022-10-01T23:56:57.850Z,18.71
2022-10-01T23:59:53.063Z,18.70
